Time;durP1;ratioP1;P1;durP2;ratioP2;P2;SDS_P1;SDS_P2;PMS_P1;PMS_P2;Temp;Humidity;BMP_temperature;BMP_pressure;BME280_temperature;BME280_humidity;BME280_pressure;Samples;Min_cycle;Max_cycle;Signal;HPM_P1;HPM_P2
2022/02/25 00:00:06;;;;;;;9.90;1.83;;;5.10;99.90;;;;;;5044115;28;38659;-74
2022/02/25 00:02:32;;;;;;;12.50;1.63;;;5.10;99.90;;;;;;5041175;28;39317;-75
2022/02/25 00:04:58;;;;;;;16.33;2.83;;;5.10;99.90;;;;;;5048765;28;38916;-76
2022/02/25 00:07:24;;;;;;;11.43;2.10;;;5.10;99.90;;;;;;5049368;28;38145;-75
2022/02/25 00:09:50;;;;;;;13.17;1.60;;;5.10;99.90;;;;;;5050829;28;39810;-75
2022/02/25 00:12:16;;;;;;;14.03;1.63;;;5.10;99.90;;;;;;5045529;28;38983;-75
2022/02/25 00:14:42;;;;;;;11.63;1.53;;;5.20;99.90;;;;;;5062459;28;38183;-75
2022/02/25 00:17:08;;;;;;;12.63;1.90;;;5.20;99.90;;;;;;5059553;28;37408;-74
2022/02/25 00:19:34;;;;;;;13.07;1.40;;;5.10;99.90;;;;;;5058306;28;38999;-75
2022/02/25 00:22:01;;;;;;;8.73;1.80;;;5.10;99.90;;;;;;5066538;28;38387;-75
2022/02/25 00:24:27;;;;;;;12.97;2.40;;;5.20;99.90;;;;;;5046128;28;48336;-75
2022/02/25 00:26:53;;;;;;;15.20;2.33;;;5.20;99.90;;;;;;5062107;28;37168;-75
2022/02/25 00:29:19;;;;;;;8.40;1.80;;;5.30;99.90;;;;;;5066619;28;38663;-75
2022/02/25 00:31:45;;;;;;;12.93;2.20;;;5.40;99.90;;;;;;5057612;28;38756;-74
2022/02/25 00:34:11;;;;;;;17.17;2.93;;;5.40;99.90;;;;;;5045878;28;38697;-75
2022/02/25 00:36:37;;;;;;;15.13;2.40;;;5.40;99.90;;;;;;5059197;28;36911;-74
2022/02/25 00:39:03;;;;;;;13.83;1.83;;;5.30;99.90;;;;;;5045054;28;39161;-75
2022/02/25 00:41:29;;;;;;;14.90;2.33;;;5.30;99.90;;;;;;5045579;28;37397;-75
2022/02/25 00:43:55;;;;;;;18.07;3.00;;;5.30;99.90;;;;;;5063446;28;37429;-74
2022/02/25 00:46:21;;;;;;;15.13;2.23;;;5.30;99.90;;;;;;5057441;28;36898;-75
2022/02/25 00:48:49;;;;;;;17.87;2.40;;;5.30;99.90;;;;;;5064884;28;38737;-75
2022/02/25 00:51:15;;;;;;;11.57;1.80;;;5.30;99.90;;;;;;5064533;28;38617;-74
2022/02/25 00:53:42;;;;;;;15.27;2.23;;;5.20;99.90;;;;;;5060096;28;36195;-75
2022/02/25 00:56:08;;;;;;;16.47;2.53;;;5.30;99.90;;;;;;5074004;28;37709;-74
2022/02/25 00:58:34;;;;;;;13.07;2.20;;;5.30;99.90;;;;;;5047123;28;38846;-74
2022/02/25 01:01:00;;;;;;;15.53;2.50;;;5.30;99.90;;;;;;5057465;28;38766;-75
2022/02/25 01:03:28;;;;;;;12.93;2.30;;;5.30;99.90;;;;;;5062151;28;38801;-75
2022/02/25 01:05:57;;;;;;;12.70;2.37;;;5.30;99.90;;;;;;5048579;28;36584;-74
2022/02/25 01:08:25;;;;;;;9.90;2.10;;;5.30;99.90;;;;;;5040264;28;37930;-75
2022/02/25 01:10:51;;;;;;;17.20;1.83;;;5.30;99.90;;;;;;5043243;28;35320;-74
2022/02/25 01:13:17;;;;;;;17.17;3.03;;;5.20;99.90;;;;;;5038990;28;38590;-74
2022/02/25 01:15:44;;;;;;;11.93;2.37;;;5.20;99.90;;;;;;5063381;28;37406;-75
2022/02/25 01:18:10;;;;;;;21.37;2.20;;;5.20;99.90;;;;;;5040865;28;37655;-74
2022/02/25 01:20:36;;;;;;;19.63;2.57;;;5.10;99.90;;;;;;5059731;28;38771;-74
2022/02/25 01:23:02;;;;;;;16.07;2.30;;;5.20;99.90;;;;;;5041038;28;38577;-74
2022/02/25 01:25:28;;;;;;;15.13;2.63;;;5.20;99.90;;;;;;5039316;28;36381;-74
2022/02/25 01:27:54;;;;;;;15.83;2.40;;;5.20;99.90;;;;;;5037314;28;38751;-74
2022/02/25 01:30:20;;;;;;;25.90;2.87;;;5.20;99.90;;;;;;5045106;28;37091;-74
2022/02/25 01:32:46;;;;;;;14.67;1.97;;;5.20;99.90;;;;;;5061512;28;39029;-74
2022/02/25 01:35:12;;;;;;;14.87;3.13;;;5.20;99.90;;;;;;5046321;28;37501;-75
2022/02/25 01:37:38;;;;;;;12.30;2.10;;;5.20;99.90;;;;;;5060519;28;38897;-75
2022/02/25 01:40:05;;;;;;;17.80;2.30;;;5.30;99.90;;;;;;5044763;28;38450;-74
2022/02/25 01:42:49;;;;;;;18.03;2.47;;;5.20;99.90;;;;;;5044363;28;37947;-74
2022/02/25 01:45:16;;;;;;;21.27;3.23;;;5.30;99.90;;;;;;5056996;28;37949;-74
2022/02/25 01:47:42;;;;;;;27.77;3.33;;;5.30;99.90;;;;;;5065671;28;39367;-75
2022/02/25 01:50:09;;;;;;;13.83;2.27;;;5.20;99.90;;;;;;5064253;28;38909;-75
2022/02/25 01:52:36;;;;;;;17.17;2.93;;;5.20;99.90;;;;;;5061436;28;38176;-75
2022/02/25 01:55:03;;;;;;;18.73;2.70;;;5.20;99.90;;;;;;5062926;28;38428;-74
2022/02/25 01:57:29;;;;;;;17.40;1.70;;;5.10;99.90;;;;;;5043293;28;38891;-75
2022/02/25 01:59:55;;;;;;;13.40;2.13;;;5.10;99.90;;;;;;5051648;28;38296;-75
2022/02/25 02:02:23;;;;;;;14.03;2.37;;;5.00;99.90;;;;;;5063293;28;37982;-74
2022/02/25 02:04:49;;;;;;;15.07;2.63;;;4.90;99.90;;;;;;5058306;28;37705;-75
2022/02/25 02:07:15;;;;;;;17.93;2.40;;;4.90;99.90;;;;;;5060072;28;38673;-75
2022/02/25 02:09:41;;;;;;;17.57;2.90;;;4.80;99.90;;;;;;5066792;28;38511;-74
2022/02/25 02:12:08;;;;;;;19.37;2.23;;;4.80;99.90;;;;;;5063400;28;38180;-75
2022/02/25 02:14:35;;;;;;;20.67;3.60;;;4.80;99.90;;;;;;5063961;28;37327;-74
2022/02/25 02:17:01;;;;;;;18.37;2.97;;;4.80;99.90;;;;;;5061838;28;40338;-75
2022/02/25 02:19:29;;;;;;;16.50;2.53;;;4.80;99.90;;;;;;5059174;28;47054;-74
2022/02/25 02:21:56;;;;;;;16.70;3.20;;;4.70;99.90;;;;;;5054898;28;39686;-74
2022/02/25 02:24:23;;;;;;;14.07;3.57;;;4.60;99.90;;;;;;5055635;28;40845;-74
2022/02/25 02:26:51;;;;;;;15.97;3.80;;;4.60;99.90;;;;;;5062831;28;39919;-75
2022/02/25 02:29:17;;;;;;;12.53;2.90;;;4.60;99.90;;;;;;5060343;28;38216;-76
2022/02/25 02:31:44;;;;;;;18.00;2.83;;;4.60;99.90;;;;;;5055802;27;38084;-75
2022/02/25 02:34:14;;;;;;;14.93;2.43;;;4.60;99.90;;;;;;5051396;28;36975;-74
2022/02/25 02:36:40;;;;;;;20.13;2.83;;;4.60;99.90;;;;;;5056871;28;38612;-74
2022/02/25 02:39:07;;;;;;;15.50;2.30;;;4.70;99.90;;;;;;5063191;28;38574;-74
2022/02/25 02:41:35;;;;;;;18.60;2.83;;;4.80;99.90;;;;;;5054837;28;38909;-75
2022/02/25 02:44:02;;;;;;;24.50;3.97;;;4.70;99.90;;;;;;5056731;28;38083;-74
2022/02/25 02:46:28;;;;;;;15.83;2.83;;;4.80;99.90;;;;;;5059508;28;46889;-74
2022/02/25 02:48:54;;;;;;;25.27;2.83;;;4.80;99.90;;;;;;5058984;28;38991;-74
2022/02/25 02:51:20;;;;;;;22.33;3.40;;;4.90;99.90;;;;;;5056660;28;38490;-75
2022/02/25 02:53:46;;;;;;;14.17;2.60;;;4.90;99.90;;;;;;5061653;28;37279;-75
2022/02/25 02:56:13;;;;;;;18.83;2.73;;;4.90;99.90;;;;;;5072729;28;39756;-75
2022/02/25 02:58:39;;;;;;;14.87;2.87;;;5.00;99.90;;;;;;5064637;28;38469;-75
2022/02/25 03:01:06;;;;;;;17.63;3.00;;;4.90;99.90;;;;;;5059679;28;39129;-75
2022/02/25 03:03:32;;;;;;;18.07;2.87;;;4.90;99.90;;;;;;5048375;28;38903;-75
2022/02/25 03:05:58;;;;;;;16.07;3.37;;;4.90;99.90;;;;;;5070584;28;38617;-74
2022/02/25 03:08:25;;;;;;;17.63;3.07;;;5.00;99.90;;;;;;5061416;28;39301;-74
2022/02/25 03:10:51;;;;;;;20.23;3.07;;;4.90;99.90;;;;;;5065124;28;39087;-74
2022/02/25 03:13:18;;;;;;;16.60;2.37;;;4.80;99.90;;;;;;5062702;28;37306;-75
2022/02/25 03:15:46;;;;;;;13.63;2.17;;;4.90;99.90;;;;;;5040702;28;39476;-75
2022/02/25 03:18:13;;;;;;;22.73;2.70;;;4.90;99.90;;;;;;5051646;28;38418;-75
2022/02/25 03:20:39;;;;;;;22.03;3.23;;;4.80;99.90;;;;;;5044414;28;39503;-74
2022/02/25 03:23:06;;;;;;;17.47;2.80;;;4.80;99.90;;;;;;5057922;28;37356;-75
2022/02/25 03:25:32;;;;;;;22.30;3.23;;;4.80;99.90;;;;;;5040337;28;39039;-74
2022/02/25 03:27:58;;;;;;;23.70;4.73;;;4.70;99.90;;;;;;5059993;28;38351;-74
2022/02/25 03:30:24;;;;;;;21.07;3.00;;;4.70;99.90;;;;;;5054895;28;38028;-75
2022/02/25 03:32:51;;;;;;;21.43;3.27;;;4.70;99.90;;;;;;5044835;28;35912;-74
2022/02/25 03:35:18;;;;;;;20.43;3.73;;;4.60;99.90;;;;;;5041509;28;40240;-74
2022/02/25 03:37:45;;;;;;;17.90;2.77;;;4.70;99.90;;;;;;5062553;28;38248;-75
2022/02/25 03:40:12;;;;;;;16.63;2.87;;;4.70;99.90;;;;;;5062377;28;38027;-75
2022/02/25 03:42:39;;;;;;;15.97;2.50;;;4.70;99.90;;;;;;5056493;28;37474;-75
2022/02/25 03:45:06;;;;;;;17.77;3.77;;;4.70;99.90;;;;;;5064126;28;39390;-75
2022/02/25 03:47:33;;;;;;;19.40;2.67;;;4.70;99.90;;;;;;5042198;28;37355;-74
2022/02/25 03:50:00;;;;;;;26.07;3.43;;;4.80;99.90;;;;;;5026982;28;37377;-74
2022/02/25 03:52:26;;;;;;;27.00;3.20;;;4.70;99.90;;;;;;5057129;28;36919;-76
2022/02/25 03:54:52;;;;;;;24.50;3.50;;;4.70;99.90;;;;;;5065470;28;38918;-74
2022/02/25 03:57:19;;;;;;;20.53;3.00;;;4.80;99.90;;;;;;5040541;28;37403;-75
2022/02/25 03:59:46;;;;;;;19.20;3.27;;;5.00;99.90;;;;;;5059678;28;37878;-75
2022/02/25 04:02:12;;;;;;;19.03;3.27;;;5.10;99.90;;;;;;5062341;28;37916;-75
2022/02/25 04:04:38;;;;;;;26.17;3.43;;;5.20;99.90;;;;;;5047199;28;39572;-74
2022/02/25 04:07:05;;;;;;;23.43;3.40;;;5.30;99.90;;;;;;5041536;28;37427;-75
2022/02/25 04:09:31;;;;;;;24.03;3.53;;;5.30;99.90;;;;;;5058251;28;37674;-75
2022/02/25 04:11:57;;;;;;;16.13;3.10;;;5.40;99.90;;;;;;5057807;28;37664;-75
2022/02/25 04:14:24;;;;;;;27.50;3.60;;;5.50;99.90;;;;;;5057922;28;39107;-74
2022/02/25 04:16:51;;;;;;;21.73;3.07;;;5.60;99.90;;;;;;5041537;28;38479;-75
2022/02/25 04:19:18;;;;;;;22.57;3.30;;;5.60;99.90;;;;;;5037235;28;38161;-75
2022/02/25 04:21:45;;;;;;;19.27;2.90;;;5.60;99.90;;;;;;5041335;28;35978;-74
2022/02/25 04:24:12;;;;;;;23.20;3.13;;;5.70;99.90;;;;;;5044371;28;38601;-74
2022/02/25 04:26:38;;;;;;;15.63;2.57;;;5.70;99.90;;;;;;5058580;28;38834;-75
2022/02/25 04:29:05;;;;;;;17.63;2.97;;;5.70;99.90;;;;;;5044097;28;38006;-75
2022/02/25 04:31:31;;;;;;;22.30;3.20;;;5.80;99.90;;;;;;5063124;28;48785;-75
2022/02/25 04:33:58;;;;;;;28.47;3.40;;;5.70;99.90;;;;;;5041013;28;39758;-74
2022/02/25 04:36:24;;;;;;;17.27;3.60;;;5.70;99.90;;;;;;5051905;28;38713;-74
2022/02/25 04:38:52;;;;;;;19.20;2.80;;;5.80;99.90;;;;;;5059771;28;38286;-75
2022/02/25 04:41:19;;;;;;;28.03;3.63;;;5.80;99.90;;;;;;5062453;28;36844;-75
2022/02/25 04:43:45;;;;;;;22.93;3.43;;;5.90;99.90;;;;;;5064431;28;38495;-77
2022/02/25 04:46:20;;;;;;;17.33;3.20;;;5.90;99.90;;;;;;5054849;28;38214;-74
2022/02/25 04:48:47;;;;;;;23.07;3.30;;;5.90;99.90;;;;;;5046688;28;38556;-75
2022/02/25 04:51:17;;;;;;;25.30;3.93;;;6.00;99.90;;;;;;5044016;28;37745;-74
2022/02/25 04:53:45;;;;;;;25.87;3.87;;;6.00;99.90;;;;;;5042036;28;40130;-75
2022/02/25 04:56:12;;;;;;;20.17;3.60;;;6.00;99.90;;;;;;5056966;28;39423;-74
2022/02/25 04:58:39;;;;;;;28.37;3.83;;;5.90;99.90;;;;;;5060907;28;37769;-76
2022/02/25 05:01:05;;;;;;;25.43;4.10;;;5.60;99.90;;;;;;5048252;28;36372;-75
2022/02/25 05:03:34;;;;;;;24.53;4.50;;;5.30;99.90;;;;;;5064530;28;39257;-75
2022/02/25 05:06:01;;;;;;;19.57;3.70;;;5.10;99.90;;;;;;5039618;28;39032;-75
2022/02/25 05:08:27;;;;;;;22.13;3.67;;;5.00;99.90;;;;;;5040075;28;45919;-75
2022/02/25 05:10:54;;;;;;;28.90;3.87;;;4.90;99.90;;;;;;5043452;28;39076;-75
2022/02/25 05:13:20;;;;;;;26.73;3.73;;;4.90;99.90;;;;;;5060105;28;38900;-75
2022/02/25 05:21:18;;;;;;;33.60;4.97;;;4.80;99.90;;;;;;5067124;28;36733;-75
2022/02/25 05:23:44;;;;;;;23.00;4.13;;;4.80;99.90;;;;;;5060511;28;40290;-74
2022/02/25 05:26:10;;;;;;;26.87;4.93;;;4.80;99.90;;;;;;5060725;28;38485;-75
2022/02/25 05:28:39;;;;;;;29.37;4.90;;;4.80;99.90;;;;;;5060486;28;38304;-74
2022/02/25 05:31:05;;;;;;;20.87;3.47;;;4.80;99.90;;;;;;5040236;28;37679;-75
2022/02/25 05:33:32;;;;;;;25.77;3.70;;;4.80;99.90;;;;;;5042086;28;40524;-75
2022/02/25 05:35:59;;;;;;;28.83;3.43;;;4.90;99.90;;;;;;5043798;28;39072;-74
2022/02/25 05:38:25;;;;;;;25.17;3.97;;;5.00;99.90;;;;;;5061952;28;39070;-75
2022/02/25 05:40:52;;;;;;;19.87;2.80;;;5.00;99.90;;;;;;5043097;28;37837;-74
2022/02/25 05:43:18;;;;;;;22.60;4.23;;;5.20;99.90;;;;;;5058244;28;38644;-74
2022/02/25 05:45:44;;;;;;;13.50;2.50;;;5.30;99.90;;;;;;5060477;28;38049;-74
2022/02/25 05:48:10;;;;;;;19.03;6.03;;;5.40;99.90;;;;;;5060463;28;38511;-75
2022/02/25 05:50:36;;;;;;;23.30;3.63;;;5.50;99.90;;;;;;5059836;28;37742;-74
2022/02/25 05:53:02;;;;;;;28.43;4.33;;;5.60;99.90;;;;;;5039885;28;38846;-75
2022/02/25 05:55:28;;;;;;;23.33;2.63;;;5.60;99.90;;;;;;5058541;28;39427;-75
2022/02/25 05:57:54;;;;;;;16.70;3.37;;;5.60;99.90;;;;;;5059249;28;38402;-75
2022/02/25 06:00:21;;;;;;;24.17;3.50;;;5.60;99.90;;;;;;5044315;28;38017;-75
2022/02/25 06:02:49;;;;;;;15.20;2.70;;;5.70;99.90;;;;;;5061687;28;38509;-75
2022/02/25 06:05:17;;;;;;;21.33;2.60;;;5.70;99.90;;;;;;5056829;28;39653;-75
2022/02/25 06:07:43;;;;;;;21.33;2.77;;;5.70;99.90;;;;;;5056395;28;38019;-74
2022/02/25 06:10:10;;;;;;;17.37;2.67;;;5.70;99.90;;;;;;5061336;28;36484;-77
2022/02/25 06:12:37;;;;;;;22.10;3.00;;;5.80;99.90;;;;;;5062295;28;39544;-75
2022/02/25 06:15:04;;;;;;;19.80;3.17;;;5.80;99.90;;;;;;5058663;28;38227;-75
2022/02/25 06:17:30;;;;;;;20.50;3.23;;;5.90;99.90;;;;;;5059954;28;39153;-75
2022/02/25 06:19:56;;;;;;;18.50;2.87;;;5.90;99.90;;;;;;5062833;28;37338;-75
2022/02/25 06:22:23;;;;;;;24.87;3.83;;;6.00;99.90;;;;;;5058532;28;39715;-75
2022/02/25 06:24:49;;;;;;;24.77;3.03;;;6.00;99.90;;;;;;5060308;28;38525;-74
2022/02/25 06:27:15;;;;;;;20.37;2.90;;;6.00;99.90;;;;;;5058146;28;37992;-76
2022/02/25 06:29:41;;;;;;;15.90;2.53;;;6.00;99.90;;;;;;5062345;28;37341;-77
2022/02/25 06:32:08;;;;;;;22.37;3.13;;;6.10;99.90;;;;;;5056769;28;40810;-78
2022/02/25 06:34:35;;;;;;;23.03;3.17;;;6.10;99.90;;;;;;5049103;28;38503;-77
2022/02/25 06:37:01;;;;;;;22.63;3.23;;;6.10;99.90;;;;;;5060078;28;36039;-77
2022/02/25 06:39:27;;;;;;;21.17;2.77;;;6.10;99.90;;;;;;5055348;28;47385;-77
2022/02/25 06:41:53;;;;;;;17.77;3.40;;;6.20;99.90;;;;;;5062927;28;38595;-77
2022/02/25 06:44:19;;;;;;;23.93;3.37;;;6.20;99.90;;;;;;5064059;28;38311;-78
2022/02/25 06:46:45;;;;;;;19.30;2.90;;;6.30;99.90;;;;;;5058743;28;38650;-77
2022/02/25 06:49:11;;;;;;;16.03;2.47;;;6.20;99.90;;;;;;5057202;28;38414;-78
2022/02/25 06:51:37;;;;;;;19.10;2.40;;;6.20;99.90;;;;;;5060772;28;38591;-77
2022/02/25 06:54:04;;;;;;;20.40;3.20;;;6.30;99.90;;;;;;5061011;28;39105;-77
2022/02/25 06:56:30;;;;;;;21.23;4.53;;;6.30;99.90;;;;;;5057902;28;38973;-77
2022/02/25 06:58:56;;;;;;;20.77;3.83;;;6.30;99.90;;;;;;5051496;28;37973;-77
2022/02/25 07:01:22;;;;;;;21.63;3.00;;;6.30;99.90;;;;;;5058040;28;39279;-76
2022/02/25 07:03:49;;;;;;;19.47;3.10;;;6.30;99.90;;;;;;5022465;28;37743;-75
2022/02/25 07:06:15;;;;;;;20.60;3.43;;;6.30;99.90;;;;;;5025895;28;40862;-77
2022/02/25 07:08:42;;;;;;;27.33;4.27;;;6.30;99.90;;;;;;5061685;28;37821;-77
2022/02/25 07:11:08;;;;;;;22.90;3.67;;;6.30;99.90;;;;;;5059595;28;39382;-76
2022/02/25 07:13:34;;;;;;;22.83;4.03;;;6.20;99.90;;;;;;5047782;28;37526;-76
2022/02/25 07:16:00;;;;;;;19.50;3.30;;;6.30;99.90;;;;;;5049232;28;37461;-76
2022/02/25 07:18:28;;;;;;;20.17;2.93;;;6.30;99.90;;;;;;5056922;28;47679;-76
2022/02/25 07:20:54;;;;;;;18.17;3.10;;;6.40;99.90;;;;;;5059442;28;38821;-76
2022/02/25 07:23:21;;;;;;;18.67;3.53;;;6.40;99.90;;;;;;5036410;28;38243;-75
2022/02/25 07:25:47;;;;;;;16.73;3.27;;;6.50;99.90;;;;;;5058868;28;38315;-75
2022/02/25 07:28:13;;;;;;;26.10;3.50;;;6.50;99.90;;;;;;5063036;28;37157;-76
2022/02/25 07:30:41;;;;;;;17.00;2.93;;;6.60;99.90;;;;;;5034658;28;38838;-76
2022/02/25 07:33:07;;;;;;;22.27;3.60;;;6.60;99.90;;;;;;5056543;28;38288;-75
2022/02/25 07:35:33;;;;;;;16.87;3.33;;;6.60;99.90;;;;;;5048615;28;37027;-75
2022/02/25 07:38:01;;;;;;;20.87;3.57;;;6.60;99.90;;;;;;5060661;28;37870;-76
2022/02/25 07:40:27;;;;;;;42.33;5.40;;;6.60;99.90;;;;;;5056976;28;39799;-76
2022/02/25 07:42:55;;;;;;;17.57;2.60;;;6.60;99.90;;;;;;5049383;28;39958;-76
2022/02/25 07:45:22;;;;;;;19.83;3.70;;;6.60;99.90;;;;;;5034734;28;38553;-76
2022/02/25 07:47:48;;;;;;;13.57;2.87;;;6.60;99.90;;;;;;5040091;28;36114;-75
2022/02/25 07:50:18;;;;;;;24.33;3.20;;;6.70;99.90;;;;;;5039503;28;39270;-76
2022/02/25 07:52:44;;;;;;;20.10;2.90;;;6.70;99.90;;;;;;5065134;28;40651;-76
2022/02/25 07:55:12;;;;;;;18.23;2.93;;;6.70;99.90;;;;;;5040981;28;37786;-77
2022/02/25 07:57:38;;;;;;;14.77;2.73;;;6.60;99.90;;;;;;5033008;28;39528;-78
2022/02/25 08:00:07;;;;;;;17.70;2.90;;;6.70;99.90;;;;;;5042516;28;38205;-75
2022/02/25 08:02:35;;;;;;;18.53;2.83;;;6.70;99.90;;;;;;5058636;28;39306;-77
2022/02/25 08:05:06;;;;;;;19.63;3.20;;;6.70;99.90;;;;;;5059630;28;39481;-76
2022/02/25 08:07:35;;;;;;;24.73;3.10;;;6.60;99.90;;;;;;5057524;28;48664;-76
2022/02/25 08:10:03;;;;;;;17.33;2.90;;;6.60;99.90;;;;;;5055817;28;39689;-76
2022/02/25 08:12:29;;;;;;;25.13;3.83;;;6.60;99.90;;;;;;5056873;28;48271;-76
2022/02/25 08:14:55;;;;;;;19.47;3.57;;;6.60;99.90;;;;;;5046317;28;39415;-76
2022/02/25 08:17:22;;;;;;;20.27;2.97;;;6.70;99.90;;;;;;5068207;28;37533;-75
2022/02/25 08:19:50;;;;;;;16.03;3.00;;;6.80;99.90;;;;;;5054721;28;37949;-76
2022/02/25 08:22:22;;;;;;;17.77;3.47;;;6.90;99.90;;;;;;5058686;28;38821;-76
2022/02/25 08:24:50;;;;;;;26.38;3.28;;;6.90;99.90;;;;;;5064027;28;38833;-76
2022/02/25 08:27:17;;;;;;;17.43;2.83;;;6.90;99.90;;;;;;5060221;28;37550;-76
2022/02/25 08:29:43;;;;;;;18.43;3.33;;;6.90;99.90;;;;;;5058303;28;38860;-76
2022/02/25 08:32:09;;;;;;;14.77;2.73;;;7.00;99.90;;;;;;5060119;28;38387;-76
2022/02/25 08:34:35;;;;;;;20.83;3.10;;;7.00;99.90;;;;;;5058093;28;36986;-76
2022/02/25 08:37:02;;;;;;;19.23;3.37;;;7.00;99.90;;;;;;5053703;28;39083;-76
2022/02/25 08:39:28;;;;;;;18.67;2.93;;;7.00;99.90;;;;;;5058039;28;40408;-76
2022/02/25 08:41:55;;;;;;;18.47;3.30;;;7.10;99.90;;;;;;5065874;28;38091;-76
2022/02/25 08:44:22;;;;;;;16.27;3.37;;;7.10;99.90;;;;;;5062666;28;39928;-77
2022/02/25 08:46:48;;;;;;;26.07;4.13;;;7.20;99.90;;;;;;5057806;28;36819;-78
2022/02/25 08:49:15;;;;;;;17.87;2.70;;;7.30;99.90;;;;;;5064539;28;40192;-77
2022/02/25 08:51:43;;;;;;;19.10;2.93;;;7.40;99.90;;;;;;5053956;28;38001;-77
2022/02/25 08:54:13;;;;;;;23.97;3.43;;;7.50;99.90;;;;;;5061179;28;38673;-75
2022/02/25 08:56:39;;;;;;;22.07;3.23;;;7.50;99.90;;;;;;5059076;28;37987;-74
2022/02/25 08:59:06;;;;;;;19.30;2.50;;;7.50;99.90;;;;;;5062589;28;39596;-76
2022/02/25 09:01:32;;;;;;;16.93;3.13;;;7.50;99.90;;;;;;5060535;28;37711;-76
2022/02/25 09:04:02;;;;;;;26.63;3.40;;;7.60;99.90;;;;;;5043145;28;36993;-78
2022/02/25 09:06:29;;;;;;;20.77;3.13;;;7.80;99.90;;;;;;5056171;28;48743;-78
2022/02/25 09:08:57;;;;;;;25.67;3.20;;;7.80;99.90;;;;;;5064108;28;38794;-79
2022/02/25 09:11:23;;;;;;;16.63;3.07;;;7.80;99.90;;;;;;5042685;28;39139;-75
2022/02/25 09:13:50;;;;;;;16.57;2.83;;;7.80;99.90;;;;;;5045753;28;39440;-75
2022/02/25 09:16:17;;;;;;;19.03;2.90;;;7.90;99.90;;;;;;5041608;28;37908;-78
2022/02/25 09:18:43;;;;;;;20.67;3.43;;;7.80;99.90;;;;;;5046525;28;40952;-78
2022/02/25 09:21:09;;;;;;;27.30;2.87;;;7.70;99.90;;;;;;5039398;28;39678;-77
2022/02/25 09:23:35;;;;;;;26.47;3.97;;;7.60;99.90;;;;;;5068720;28;38924;-77
2022/02/25 09:26:02;;;;;;;19.77;3.37;;;7.60;99.90;;;;;;5041144;28;38036;-77
2022/02/25 09:28:28;;;;;;;22.20;3.57;;;7.60;99.90;;;;;;5061814;28;38324;-77
2022/02/25 09:30:54;;;;;;;14.97;2.80;;;7.70;99.90;;;;;;5065344;28;38702;-80
2022/02/25 09:33:21;;;;;;;12.77;2.47;;;7.70;99.90;;;;;;5043900;28;37083;-77
2022/02/25 09:35:47;;;;;;;20.13;2.77;;;7.50;99.90;;;;;;5062349;28;38213;-77
2022/02/25 09:38:13;;;;;;;16.90;2.97;;;7.60;99.90;;;;;;5063670;28;38742;-77
2022/02/25 09:40:39;;;;;;;31.40;3.93;;;7.70;99.90;;;;;;5058754;28;39135;-76
2022/02/25 09:43:05;;;;;;;18.77;3.07;;;7.70;99.90;;;;;;5039176;28;38780;-75
2022/02/25 09:45:32;;;;;;;14.33;3.03;;;7.70;99.90;;;;;;5064928;28;36048;-77
2022/02/25 09:47:58;;;;;;;38.07;4.03;;;7.60;99.90;;;;;;5041835;28;39901;-77
2022/02/25 09:50:26;;;;;;;23.73;3.30;;;7.60;99.90;;;;;;5041673;28;38717;-77
2022/02/25 09:52:53;;;;;;;20.03;3.30;;;7.60;99.90;;;;;;5041592;28;38483;-76
2022/02/25 09:55:27;;;;;;;24.73;3.63;;;7.70;99.90;;;;;;5046109;28;37208;-76
2022/02/25 09:57:54;;;;;;;20.57;3.67;;;7.60;99.90;;;;;;5062516;28;38974;-76
2022/02/25 10:00:21;;;;;;;23.80;4.40;;;7.70;99.90;;;;;;5045099;28;37175;-77
2022/02/25 10:02:51;;;;;;;26.43;3.63;;;7.80;99.90;;;;;;5056572;28;38335;-76
2022/02/25 10:05:22;;;;;;;16.27;3.43;;;7.70;99.90;;;;;;5044975;28;37347;-76
2022/02/25 10:07:49;;;;;;;20.07;3.30;;;7.80;99.90;;;;;;5042396;28;38613;-76
2022/02/25 10:10:20;;;;;;;19.40;3.00;;;7.80;99.90;;;;;;5027056;28;38833;-77
2022/02/25 10:13:03;;;;;;;15.23;2.77;;;7.90;99.90;;;;;;5048142;28;37887;-77
2022/02/25 10:15:35;;;;;;;19.57;3.40;;;8.10;99.90;;;;;;5026303;28;47649;-77
2022/02/25 10:18:04;;;;;;;17.38;2.90;;;8.00;99.90;;;;;;5044378;28;38864;-76
2022/02/25 10:20:32;;;;;;;21.03;3.80;;;8.10;99.90;;;;;;5049842;28;47565;-76
2022/02/25 10:22:59;;;;;;;16.30;3.40;;;8.20;99.90;;;;;;5045136;28;38010;-76
2022/02/25 10:25:33;;;;;;;19.00;3.30;;;8.20;99.90;;;;;;5024547;28;37471;-77
2022/02/25 10:27:59;;;;;;;23.60;3.33;;;8.10;99.90;;;;;;5033681;28;39819;-77
2022/02/25 10:30:28;;;;;;;20.43;3.30;;;8.10;99.90;;;;;;5032567;28;38649;-76
2022/02/25 10:32:56;;;;;;;19.80;3.13;;;8.20;99.90;;;;;;5046201;28;37951;-77
2022/02/25 10:35:38;;;;;;;15.47;3.00;;;8.20;99.90;;;;;;5041222;28;36317;-77
2022/02/25 10:38:15;;;;;;;18.17;3.83;;;8.30;99.90;;;;;;5025869;28;38976;-76
2022/02/25 10:40:44;;;;;;;17.37;3.60;;;8.30;99.90;;;;;;5045250;28;39645;-76
2022/02/25 10:43:25;;;;;;;20.17;3.00;;;8.30;99.90;;;;;;5029581;28;38989;-76
2022/02/25 10:45:54;;;;;;;21.43;3.17;;;8.20;99.90;;;;;;5035379;28;36032;-75
2022/02/25 10:48:22;;;;;;;19.00;2.97;;;8.10;99.90;;;;;;5053761;28;38983;-75
2022/02/25 10:50:55;;;;;;;19.33;2.80;;;8.10;99.90;;;;;;5047869;28;38213;-76
2022/02/25 10:53:31;;;;;;;21.97;3.80;;;8.10;99.90;;;;;;5049806;28;38052;-76
2022/02/25 10:56:08;;;;;;;18.77;2.67;;;8.30;99.90;;;;;;5051866;28;36837;-76
2022/02/25 10:58:47;;;;;;;29.80;3.50;;;8.30;99.90;;;;;;5048541;28;48643;-80
2022/02/25 11:01:14;;;;;;;22.53;4.10;;;8.20;99.90;;;;;;5053116;28;39261;-76
2022/02/25 11:03:42;;;;;;;17.60;3.33;;;8.20;99.90;;;;;;5064751;28;38307;-76
2022/02/25 11:06:12;;;;;;;18.93;3.47;;;8.20;99.90;;;;;;5060605;28;36258;-76
2022/02/25 11:08:39;;;;;;;21.77;3.07;;;8.30;99.90;;;;;;5063186;28;37424;-76
2022/02/25 11:11:06;;;;;;;21.87;3.17;;;8.20;99.90;;;;;;5063398;28;38697;-76
2022/02/25 11:13:33;;;;;;;22.07;3.97;;;8.00;99.90;;;;;;5057912;28;39702;-77
2022/02/25 11:15:59;;;;;;;21.90;3.40;;;7.80;99.90;;;;;;5059085;28;37133;-76
2022/02/25 11:18:26;;;;;;;20.93;3.30;;;7.90;99.90;;;;;;5068418;28;37665;-76
2022/02/25 11:20:54;;;;;;;24.00;3.40;;;8.00;99.90;;;;;;5062603;28;38986;-76
2022/02/25 11:23:22;;;;;;;18.43;3.80;;;8.00;99.90;;;;;;5056479;28;38085;-76
2022/02/25 11:25:49;;;;;;;19.27;3.17;;;8.10;99.90;;;;;;5064479;28;35709;-76
2022/02/25 11:28:16;;;;;;;20.87;3.27;;;8.30;99.90;;;;;;5064349;28;38769;-76
2022/02/25 11:30:46;;;;;;;16.07;2.87;;;8.40;99.90;;;;;;5065239;28;39511;-77
2022/02/25 11:33:23;;;;;;;20.00;3.20;;;8.60;99.90;;;;;;5063118;28;38090;-77
2022/02/25 11:35:53;;;;;;;14.40;2.87;;;8.70;99.90;;;;;;5062360;28;37631;-76
2022/02/25 11:38:54;;;;;;;19.03;3.97;;;8.80;99.90;;;;;;5072219;28;38799;-76
2022/02/25 11:41:22;;;;;;;24.27;4.50;;;8.60;99.90;;;;;;5000252;28;37713;-77
2022/02/25 11:43:58;;;;;;;22.57;3.60;;;8.50;99.90;;;;;;5050111;28;36980;-76
2022/02/25 11:46:27;;;;;;;33.73;4.97;;;8.60;99.90;;;;;;5065194;28;37355;-77
2022/02/25 11:49:18;;;;;;;22.50;3.27;;;8.40;99.90;;;;;;5066036;28;38299;-77
2022/02/25 11:51:51;;;;;;;13.97;2.80;;;8.30;99.90;;;;;;5058756;28;49140;-77
2022/02/25 11:54:26;;;;;;;20.10;3.70;;;8.30;99.90;;;;;;5062070;28;39091;-75
2022/02/25 11:57:04;;;;;;;21.33;4.13;;;8.60;99.90;;;;;;5064103;28;37173;-77
2022/02/25 11:59:33;;;;;;;18.83;2.87;;;8.60;99.90;;;;;;5057535;28;47177;-77
2022/02/25 12:02:02;;;;;;;14.63;3.00;;;8.80;99.90;;;;;;5062722;28;38495;-77
2022/02/25 12:04:32;;;;;;;28.70;4.17;;;8.80;99.90;;;;;;5061546;28;45326;-78
2022/02/25 12:07:00;;;;;;;22.33;3.40;;;8.80;99.90;;;;;;5058679;28;35963;-77
2022/02/25 12:09:56;;;;;;;19.80;4.20;;;8.60;99.90;;;;;;5067893;28;39522;-77
2022/02/25 12:12:27;;;;;;;25.53;4.57;;;8.40;99.90;;;;;;5058448;28;37486;-77
2022/02/25 12:15:08;;;;;;;22.50;3.40;;;8.60;99.90;;;;;;5057130;28;38852;-77
2022/02/25 12:17:43;;;;;;;19.83;3.17;;;8.80;99.90;;;;;;5058347;28;47446;-77
2022/02/25 12:20:24;;;;;;;16.80;3.10;;;9.00;99.90;;;;;;5062963;28;38006;-77
2022/02/25 12:23:05;;;;;;;17.37;3.30;;;8.90;99.90;;;;;;5068502;28;38377;-77
2022/02/25 12:25:40;;;;;;;23.63;4.57;;;9.00;99.90;;;;;;5061866;28;48410;-78
2022/02/25 12:28:31;;;;;;;21.97;4.30;;;9.20;99.90;;;;;;5058484;28;36162;-74
2022/02/25 12:31:06;;;;;;;19.07;3.73;;;9.50;99.90;;;;;;5065583;28;38836;-77
2022/02/25 12:33:44;;;;;;;18.43;3.87;;;9.40;99.90;;;;;;5066636;28;47957;-75
2022/02/25 12:36:34;;;;;;;15.20;3.37;;;9.40;99.90;;;;;;5062952;28;37240;-75
2022/02/25 12:39:11;;;;;;;16.00;2.97;;;9.30;99.90;;;;;;5064397;28;35965;-75
2022/02/25 12:41:48;;;;;;;20.87;3.90;;;9.50;99.90;;;;;;5062481;28;48626;-76
2022/02/25 12:44:20;;;;;;;20.17;3.47;;;9.30;99.90;;;;;;5063908;28;39856;-75
2022/02/25 12:46:54;;;;;;;14.50;3.13;;;8.90;99.90;;;;;;5071100;28;39024;-78
2022/02/25 12:49:24;;;;;;;18.53;3.90;;;8.90;99.90;;;;;;5061490;28;36468;-77
2022/02/25 12:51:53;;;;;;;19.03;3.07;;;8.90;99.90;;;;;;5057215;28;39274;-77
2022/02/25 12:54:23;;;;;;;21.97;3.50;;;9.00;99.90;;;;;;5069033;28;38313;-77
2022/02/25 12:56:53;;;;;;;20.70;3.53;;;8.70;99.90;;;;;;5066018;28;38382;-78